sensor_id;sensor_type;location;lat;lon;timestamp;P1;durP1;ratioP1;P2;durP2;ratioP2
34814;SDS011;21030;53.912;15.214;2023-02-23T00:01:59;0.85;;;0.43;;
34814;SDS011;21030;53.912;15.214;2023-02-23T00:04:35;0.57;;;0.45;;
34814;SDS011;21030;53.912;15.214;2023-02-23T00:07:06;0.45;;;0.43;;
34814;SDS011;21030;53.912;15.214;2023-02-23T00:09:33;0.05;;;0.05;;
34814;SDS011;21030;53.912;15.214;2023-02-23T00:12:01;4.55;;;1.42;;
34814;SDS011;21030;53.912;15.214;2023-02-23T00:14:34;0.28;;;0.28;;
34814;SDS011;21030;53.912;15.214;2023-02-23T00:17:05;0.98;;;0.57;;
34814;SDS011;21030;53.912;15.214;2023-02-23T00:19:40;1.92;;;1.08;;
34814;SDS011;21030;53.912;15.214;2023-02-23T00:22:11;0.98;;;0.60;;
34814;SDS011;21030;53.912;15.214;2023-02-23T00:24:38;0.52;;;0.40;;
34814;SDS011;21030;53.912;15.214;2023-02-23T00:27:08;0.43;;;0.43;;
34814;SDS011;21030;53.912;15.214;2023-02-23T00:29:35;1.83;;;1.50;;
34814;SDS011;21030;53.912;15.214;2023-02-23T00:32:06;1.23;;;1.13;;
34814;SDS011;21030;53.912;15.214;2023-02-23T00:34:33;0.88;;;0.55;;
34814;SDS011;21030;53.912;15.214;2023-02-23T00:37:02;2.17;;;1.95;;
34814;SDS011;21030;53.912;15.214;2023-02-23T00:39:29;0.13;;;0.13;;
34814;SDS011;21030;53.912;15.214;2023-02-23T00:41:56;1.20;;;0.70;;
34814;SDS011;21030;53.912;15.214;2023-02-23T00:44:28;3.03;;;1.45;;
34814;SDS011;21030;53.912;15.214;2023-02-23T00:46:56;1.10;;;0.75;;
34814;SDS011;21030;53.912;15.214;2023-02-23T00:49:23;1.73;;;0.57;;
34814;SDS011;21030;53.912;15.214;2023-02-23T00:51:50;2.50;;;1.17;;
34814;SDS011;21030;53.912;15.214;2023-02-23T00:54:19;1.45;;;1.27;;
34814;SDS011;21030;53.912;15.214;2023-02-23T00:56:47;0.98;;;0.20;;
34814;SDS011;21030;53.912;15.214;2023-02-23T00:59:15;1.08;;;0.57;;
34814;SDS011;21030;53.912;15.214;2023-02-23T01:01:46;0.20;;;0.17;;
34814;SDS011;21030;53.912;15.214;2023-02-23T01:04:13;0.80;;;0.73;;
34814;SDS011;21030;53.912;15.214;2023-02-23T01:06:42;0.80;;;0.52;;
34814;SDS011;21030;53.912;15.214;2023-02-23T01:09:10;0.30;;;0.30;;
34814;SDS011;21030;53.912;15.214;2023-02-23T01:11:41;2.50;;;1.92;;
34814;SDS011;21030;53.912;15.214;2023-02-23T01:14:12;0.52;;;0.52;;
34814;SDS011;21030;53.912;15.214;2023-02-23T01:16:39;0.00;;;0.00;;
34814;SDS011;21030;53.912;15.214;2023-02-23T01:19:06;0.95;;;0.60;;
34814;SDS011;21030;53.912;15.214;2023-02-23T01:21:37;0.45;;;0.25;;
34814;SDS011;21030;53.912;15.214;2023-02-23T01:24:10;1.80;;;1.17;;
34814;SDS011;21030;53.912;15.214;2023-02-23T01:26:39;0.30;;;0.22;;
34814;SDS011;21030;53.912;15.214;2023-02-23T01:29:12;3.58;;;0.80;;
34814;SDS011;21030;53.912;15.214;2023-02-23T01:31:43;1.48;;;0.55;;
34814;SDS011;21030;53.912;15.214;2023-02-23T01:34:12;2.22;;;0.90;;
34814;SDS011;21030;53.912;15.214;2023-02-23T01:36:41;1.25;;;0.60;;
34814;SDS011;21030;53.912;15.214;2023-02-23T01:39:10;0.68;;;0.68;;
34814;SDS011;21030;53.912;15.214;2023-02-23T01:41:42;1.52;;;1.05;;
34814;SDS011;21030;53.912;15.214;2023-02-23T01:46:42;3.00;;;1.00;;
34814;SDS011;21030;53.912;15.214;2023-02-23T01:49:12;0.80;;;0.35;;
34814;SDS011;21030;53.912;15.214;2023-02-23T01:51:48;5.93;;;1.45;;
34814;SDS011;21030;53.912;15.214;2023-02-23T01:54:22;1.45;;;0.52;;
34814;SDS011;21030;53.912;15.214;2023-02-23T01:56:54;2.95;;;1.65;;
34814;SDS011;21030;53.912;15.214;2023-02-23T02:02:01;9.32;;;0.95;;
34814;SDS011;21030;53.912;15.214;2023-02-23T02:04:32;2.40;;;2.20;;
34814;SDS011;21030;53.912;15.214;2023-02-23T02:07:13;0.73;;;0.52;;
34814;SDS011;21030;53.912;15.214;2023-02-23T02:09:55;2.92;;;0.45;;
34814;SDS011;21030;53.912;15.214;2023-02-23T02:12:51;0.30;;;0.30;;
34814;SDS011;21030;53.912;15.214;2023-02-23T02:15:22;0.80;;;0.57;;
34814;SDS011;21030;53.912;15.214;2023-02-23T02:20:36;2.35;;;0.45;;
34814;SDS011;21030;53.912;15.214;2023-02-23T02:45:39;1.90;;;1.80;;
34814;SDS011;21030;53.912;15.214;2023-02-23T02:56:36;1.08;;;0.98;;
34814;SDS011;21030;53.912;15.214;2023-02-23T02:59:11;0.85;;;0.50;;
34814;SDS011;21030;53.912;15.214;2023-02-23T03:01:58;0.85;;;0.75;;
34814;SDS011;21030;53.912;15.214;2023-02-23T03:04:44;0.60;;;0.50;;
34814;SDS011;21030;53.912;15.214;2023-02-23T03:10:50;2.00;;;1.48;;
34814;SDS011;21030;53.912;15.214;2023-02-23T03:19:54;2.10;;;1.48;;
34814;SDS011;21030;53.912;15.214;2023-02-23T03:22:54;0.40;;;0.25;;
34814;SDS011;21030;53.912;15.214;2023-02-23T03:25:50;1.83;;;1.05;;
34814;SDS011;21030;53.912;15.214;2023-02-23T03:32:44;1.58;;;0.70;;
34814;SDS011;21030;53.912;15.214;2023-02-23T03:41:24;1.48;;;1.30;;
34814;SDS011;21030;53.912;15.214;2023-02-23T03:44:14;1.55;;;0.77;;
34814;SDS011;21030;53.912;15.214;2023-02-23T03:47:07;0.10;;;0.10;;
34814;SDS011;21030;53.912;15.214;2023-02-23T03:49:55;0.45;;;0.40;;
34814;SDS011;21030;53.912;15.214;2023-02-23T03:52:49;0.98;;;0.93;;
34814;SDS011;21030;53.912;15.214;2023-02-23T03:55:39;0.75;;;0.32;;
34814;SDS011;21030;53.912;15.214;2023-02-23T03:58:38;1.40;;;0.63;;
34814;SDS011;21030;53.912;15.214;2023-02-23T04:01:29;0.00;;;0.00;;
34814;SDS011;21030;53.912;15.214;2023-02-23T04:04:16;1.67;;;1.10;;
34814;SDS011;21030;53.912;15.214;2023-02-23T04:07:04;1.13;;;0.93;;
34814;SDS011;21030;53.912;15.214;2023-02-23T04:09:52;1.10;;;1.00;;
34814;SDS011;21030;53.912;15.214;2023-02-23T04:12:45;0.52;;;0.52;;
34814;SDS011;21030;53.912;15.214;2023-02-23T04:15:55;10.15;;;1.00;;
34814;SDS011;21030;53.912;15.214;2023-02-23T04:18:26;2.17;;;1.15;;
34814;SDS011;21030;53.912;15.214;2023-02-23T04:20:56;0.63;;;0.20;;
34814;SDS011;21030;53.912;15.214;2023-02-23T04:23:24;0.95;;;0.60;;
34814;SDS011;21030;53.912;15.214;2023-02-23T04:25:52;2.10;;;1.30;;
34814;SDS011;21030;53.912;15.214;2023-02-23T04:28:20;0.75;;;0.30;;
34814;SDS011;21030;53.912;15.214;2023-02-23T04:30:49;1.83;;;0.75;;
34814;SDS011;21030;53.912;15.214;2023-02-23T04:33:18;0.40;;;0.40;;
34814;SDS011;21030;53.912;15.214;2023-02-23T04:35:47;1.05;;;1.00;;
34814;SDS011;21030;53.912;15.214;2023-02-23T04:38:14;1.15;;;1.00;;
34814;SDS011;21030;53.912;15.214;2023-02-23T04:40:42;0.68;;;0.68;;
34814;SDS011;21030;53.912;15.214;2023-02-23T04:43:12;0.10;;;0.10;;
34814;SDS011;21030;53.912;15.214;2023-02-23T04:45:40;1.98;;;1.00;;
34814;SDS011;21030;53.912;15.214;2023-02-23T04:48:07;2.08;;;1.50;;
34814;SDS011;21030;53.912;15.214;2023-02-23T04:50:34;1.25;;;0.90;;
34814;SDS011;21030;53.912;15.214;2023-02-23T04:53:02;2.75;;;1.85;;
34814;SDS011;21030;53.912;15.214;2023-02-23T04:55:29;1.55;;;1.15;;
34814;SDS011;21030;53.912;15.214;2023-02-23T04:57:58;1.33;;;0.68;;
34814;SDS011;21030;53.912;15.214;2023-02-23T05:00:26;4.25;;;2.40;;
34814;SDS011;21030;53.912;15.214;2023-02-23T05:02:55;0.43;;;0.43;;
34814;SDS011;21030;53.912;15.214;2023-02-23T05:05:22;1.38;;;1.27;;
34814;SDS011;21030;53.912;15.214;2023-02-23T05:07:50;17.15;;;1.58;;
34814;SDS011;21030;53.912;15.214;2023-02-23T05:10:18;5.78;;;0.85;;
34814;SDS011;21030;53.912;15.214;2023-02-23T05:12:45;2.75;;;1.65;;
34814;SDS011;21030;53.912;15.214;2023-02-23T05:15:12;0.28;;;0.28;;
34814;SDS011;21030;53.912;15.214;2023-02-23T05:17:40;1.77;;;0.82;;
34814;SDS011;21030;53.912;15.214;2023-02-23T05:20:11;1.70;;;1.25;;
34814;SDS011;21030;53.912;15.214;2023-02-23T05:22:39;1.13;;;0.63;;
34814;SDS011;21030;53.912;15.214;2023-02-23T05:25:07;1.05;;;0.30;;
34814;SDS011;21030;53.912;15.214;2023-02-23T05:27:35;3.35;;;1.92;;
34814;SDS011;21030;53.912;15.214;2023-02-23T05:30:03;3.97;;;1.65;;
34814;SDS011;21030;53.912;15.214;2023-02-23T05:32:33;0.50;;;0.30;;
34814;SDS011;21030;53.912;15.214;2023-02-23T05:35:01;0.25;;;0.25;;
34814;SDS011;21030;53.912;15.214;2023-02-23T05:37:29;0.80;;;0.73;;
34814;SDS011;21030;53.912;15.214;2023-02-23T05:39:56;0.70;;;0.47;;
34814;SDS011;21030;53.912;15.214;2023-02-23T05:42:23;2.30;;;2.10;;
34814;SDS011;21030;53.912;15.214;2023-02-23T05:44:50;0.95;;;0.45;;
34814;SDS011;21030;53.912;15.214;2023-02-23T05:47:17;3.10;;;1.08;;
34814;SDS011;21030;53.912;15.214;2023-02-23T05:49:44;1.50;;;0.82;;
34814;SDS011;21030;53.912;15.214;2023-02-23T05:52:12;1.15;;;0.63;;
34814;SDS011;21030;53.912;15.214;2023-02-23T05:54:39;0.47;;;0.47;;
34814;SDS011;21030;53.912;15.214;2023-02-23T05:57:06;2.38;;;1.63;;
34814;SDS011;21030;53.912;15.214;2023-02-23T05:59:33;0.52;;;0.45;;
34814;SDS011;21030;53.912;15.214;2023-02-23T06:02:01;1.83;;;1.20;;
34814;SDS011;21030;53.912;15.214;2023-02-23T06:04:30;2.33;;;1.55;;
34814;SDS011;21030;53.912;15.214;2023-02-23T06:06:57;4.78;;;2.75;;
34814;SDS011;21030;53.912;15.214;2023-02-23T06:09:24;5.35;;;1.80;;
34814;SDS011;21030;53.912;15.214;2023-02-23T06:11:52;2.95;;;1.13;;
34814;SDS011;21030;53.912;15.214;2023-02-23T06:14:19;0.43;;;0.30;;
34814;SDS011;21030;53.912;15.214;2023-02-23T06:16:46;10.52;;;2.28;;
34814;SDS011;21030;53.912;15.214;2023-02-23T06:19:14;2.40;;;2.13;;
34814;SDS011;21030;53.912;15.214;2023-02-23T06:21:41;1.10;;;0.47;;
34814;SDS011;21030;53.912;15.214;2023-02-23T06:24:08;1.05;;;0.93;;
34814;SDS011;21030;53.912;15.214;2023-02-23T06:26:36;1.02;;;0.75;;
34814;SDS011;21030;53.912;15.214;2023-02-23T06:29:03;5.88;;;1.20;;
34814;SDS011;21030;53.912;15.214;2023-02-23T06:31:30;0.68;;;0.55;;
34814;SDS011;21030;53.912;15.214;2023-02-23T06:33:57;2.97;;;2.28;;
34814;SDS011;21030;53.912;15.214;2023-02-23T06:36:24;3.17;;;1.10;;
34814;SDS011;21030;53.912;15.214;2023-02-23T06:38:54;1.83;;;0.93;;
34814;SDS011;21030;53.912;15.214;2023-02-23T06:41:25;2.03;;;0.75;;
34814;SDS011;21030;53.912;15.214;2023-02-23T06:43:52;1.75;;;1.42;;
34814;SDS011;21030;53.912;15.214;2023-02-23T06:46:20;1.90;;;0.98;;
34814;SDS011;21030;53.912;15.214;2023-02-23T06:48:47;1.40;;;1.00;;
34814;SDS011;21030;53.912;15.214;2023-02-23T06:51:14;1.95;;;1.02;;
34814;SDS011;21030;53.912;15.214;2023-02-23T06:53:42;2.20;;;1.17;;
34814;SDS011;21030;53.912;15.214;2023-02-23T06:56:09;1.80;;;0.90;;
34814;SDS011;21030;53.912;15.214;2023-02-23T06:58:39;1.75;;;0.73;;
34814;SDS011;21030;53.912;15.214;2023-02-23T07:01:08;2.30;;;0.95;;
34814;SDS011;21030;53.912;15.214;2023-02-23T07:03:35;1.25;;;0.70;;
34814;SDS011;21030;53.912;15.214;2023-02-23T07:06:02;1.50;;;1.15;;
34814;SDS011;21030;53.912;15.214;2023-02-23T07:08:31;4.07;;;2.40;;
34814;SDS011;21030;53.912;15.214;2023-02-23T07:11:06;1.65;;;1.13;;
34814;SDS011;21030;53.912;15.214;2023-02-23T07:13:38;2.47;;;1.45;;
34814;SDS011;21030;53.912;15.214;2023-02-23T07:16:07;6.63;;;2.45;;
34814;SDS011;21030;53.912;15.214;2023-02-23T07:18:35;0.30;;;0.20;;
34814;SDS011;21030;53.912;15.214;2023-02-23T07:21:02;2.15;;;1.15;;
34814;SDS011;21030;53.912;15.214;2023-02-23T07:23:29;1.75;;;1.27;;
34814;SDS011;21030;53.912;15.214;2023-02-23T07:25:56;0.85;;;0.82;;
34814;SDS011;21030;53.912;15.214;2023-02-23T07:28:25;1.98;;;0.45;;
34814;SDS011;21030;53.912;15.214;2023-02-23T07:30:54;0.43;;;0.35;;
34814;SDS011;21030;53.912;15.214;2023-02-23T07:33:23;6.22;;;2.13;;
34814;SDS011;21030;53.912;15.214;2023-02-23T07:35:50;1.58;;;0.93;;
34814;SDS011;21030;53.912;15.214;2023-02-23T07:38:18;0.65;;;0.65;;
34814;SDS011;21030;53.912;15.214;2023-02-23T07:40:45;3.40;;;1.30;;
34814;SDS011;21030;53.912;15.214;2023-02-23T07:43:14;5.07;;;1.42;;
34814;SDS011;21030;53.912;15.214;2023-02-23T07:45:41;5.07;;;2.90;;
34814;SDS011;21030;53.912;15.214;2023-02-23T07:48:11;0.43;;;0.43;;
34814;SDS011;21030;53.912;15.214;2023-02-23T07:50:39;3.90;;;2.22;;
34814;SDS011;21030;53.912;15.214;2023-02-23T07:53:07;4.25;;;1.85;;
34814;SDS011;21030;53.912;15.214;2023-02-23T07:55:35;1.10;;;0.88;;
34814;SDS011;21030;53.912;15.214;2023-02-23T07:58:04;1.73;;;1.13;;
34814;SDS011;21030;53.912;15.214;2023-02-23T08:00:33;1.33;;;0.85;;
34814;SDS011;21030;53.912;15.214;2023-02-23T08:03:02;6.35;;;1.98;;
34814;SDS011;21030;53.912;15.214;2023-02-23T08:05:29;2.10;;;0.82;;
34814;SDS011;21030;53.912;15.214;2023-02-23T08:07:57;1.80;;;1.70;;
34814;SDS011;21030;53.912;15.214;2023-02-23T08:10:25;0.45;;;0.40;;
34814;SDS011;21030;53.912;15.214;2023-02-23T08:12:52;4.50;;;1.85;;
34814;SDS011;21030;53.912;15.214;2023-02-23T08:15:19;4.85;;;2.45;;
34814;SDS011;21030;53.912;15.214;2023-02-23T08:17:47;1.75;;;1.13;;
34814;SDS011;21030;53.912;15.214;2023-02-23T08:20:14;2.33;;;1.55;;
34814;SDS011;21030;53.912;15.214;2023-02-23T08:22:41;3.38;;;1.08;;
34814;SDS011;21030;53.912;15.214;2023-02-23T08:25:15;3.28;;;2.05;;
34814;SDS011;21030;53.912;15.214;2023-02-23T08:27:43;6.20;;;1.25;;
34814;SDS011;21030;53.912;15.214;2023-02-23T08:30:10;3.50;;;1.35;;
34814;SDS011;21030;53.912;15.214;2023-02-23T08:32:39;1.13;;;0.65;;
34814;SDS011;21030;53.912;15.214;2023-02-23T08:35:06;1.55;;;1.45;;
34814;SDS011;21030;53.912;15.214;2023-02-23T08:37:35;11.85;;;1.17;;
34814;SDS011;21030;53.912;15.214;2023-02-23T08:40:03;5.10;;;1.95;;
34814;SDS011;21030;53.912;15.214;2023-02-23T08:42:30;4.65;;;2.10;;
34814;SDS011;21030;53.912;15.214;2023-02-23T08:44:58;4.60;;;3.05;;
34814;SDS011;21030;53.912;15.214;2023-02-23T08:47:26;3.65;;;2.33;;
34814;SDS011;21030;53.912;15.214;2023-02-23T08:49:53;9.82;;;3.25;;
34814;SDS011;21030;53.912;15.214;2023-02-23T08:52:21;5.03;;;1.30;;
34814;SDS011;21030;53.912;15.214;2023-02-23T08:54:49;4.85;;;3.08;;
34814;SDS011;21030;53.912;15.214;2023-02-23T08:57:16;6.43;;;4.07;;
34814;SDS011;21030;53.912;15.214;2023-02-23T08:59:44;4.22;;;2.78;;
34814;SDS011;21030;53.912;15.214;2023-02-23T09:02:13;6.45;;;2.13;;
34814;SDS011;21030;53.912;15.214;2023-02-23T09:04:41;6.00;;;3.78;;
34814;SDS011;21030;53.912;15.214;2023-02-23T09:07:12;11.95;;;3.13;;
34814;SDS011;21030;53.912;15.214;2023-02-23T09:09:41;5.63;;;2.08;;
34814;SDS011;21030;53.912;15.214;2023-02-23T09:12:08;3.30;;;2.33;;
34814;SDS011;21030;53.912;15.214;2023-02-23T09:14:36;7.47;;;3.53;;
34814;SDS011;21030;53.912;15.214;2023-02-23T09:17:03;21.20;;;3.75;;
34814;SDS011;21030;53.912;15.214;2023-02-23T09:19:30;4.93;;;2.58;;
34814;SDS011;21030;53.912;15.214;2023-02-23T09:21:57;23.90;;;3.00;;
34814;SDS011;21030;53.912;15.214;2023-02-23T09:24:24;12.23;;;3.58;;
34814;SDS011;21030;53.912;15.214;2023-02-23T09:26:55;4.22;;;2.15;;
34814;SDS011;21030;53.912;15.214;2023-02-23T09:29:22;7.55;;;2.67;;
34814;SDS011;21030;53.912;15.214;2023-02-23T09:31:49;4.38;;;2.17;;
34814;SDS011;21030;53.912;15.214;2023-02-23T09:34:18;4.50;;;2.15;;
34814;SDS011;21030;53.912;15.214;2023-02-23T09:36:45;4.95;;;2.38;;
34814;SDS011;21030;53.912;15.214;2023-02-23T09:39:12;2.88;;;1.95;;
34814;SDS011;21030;53.912;15.214;2023-02-23T09:41:52;18.48;;;2.92;;
34814;SDS011;21030;53.912;15.214;2023-02-23T09:49:56;8.43;;;2.85;;
34814;SDS011;21030;53.912;15.214;2023-02-23T09:52:32;17.60;;;3.60;;
34814;SDS011;21030;53.912;15.214;2023-02-23T09:55:08;3.88;;;1.88;;
34814;SDS011;21030;53.912;15.214;2023-02-23T10:00:19;3.50;;;2.58;;
34814;SDS011;21030;53.912;15.214;2023-02-23T10:05:44;6.75;;;2.22;;
34814;SDS011;21030;53.912;15.214;2023-02-23T10:08:24;5.28;;;3.05;;
34814;SDS011;21030;53.912;15.214;2023-02-23T10:22:45;5.65;;;2.53;;
34814;SDS011;21030;53.912;15.214;2023-02-23T10:25:16;8.75;;;2.10;;
34814;SDS011;21030;53.912;15.214;2023-02-23T10:27:51;6.45;;;3.75;;
34814;SDS011;21030;53.912;15.214;2023-02-23T10:30:25;11.35;;;3.35;;
34814;SDS011;21030;53.912;15.214;2023-02-23T10:32:57;6.45;;;4.05;;
34814;SDS011;21030;53.912;15.214;2023-02-23T10:35:26;5.30;;;2.55;;
34814;SDS011;21030;53.912;15.214;2023-02-23T10:37:55;3.03;;;1.80;;
34814;SDS011;21030;53.912;15.214;2023-02-23T10:40:24;9.65;;;3.70;;
34814;SDS011;21030;53.912;15.214;2023-02-23T10:42:54;2.97;;;2.28;;
34814;SDS011;21030;53.912;15.214;2023-02-23T10:45:26;6.40;;;2.25;;
34814;SDS011;21030;53.912;15.214;2023-02-23T10:48:00;7.82;;;2.53;;
34814;SDS011;21030;53.912;15.214;2023-02-23T10:50:36;7.07;;;1.98;;
34814;SDS011;21030;53.912;15.214;2023-02-23T10:53:23;4.90;;;2.03;;
34814;SDS011;21030;53.912;15.214;2023-02-23T10:58:40;6.55;;;3.63;;
34814;SDS011;21030;53.912;15.214;2023-02-23T11:01:24;5.35;;;2.40;;
34814;SDS011;21030;53.912;15.214;2023-02-23T11:04:27;2.00;;;1.25;;
34814;SDS011;21030;53.912;15.214;2023-02-23T11:07:07;8.35;;;2.67;;
34814;SDS011;21030;53.912;15.214;2023-02-23T11:09:45;2.92;;;2.55;;
34814;SDS011;21030;53.912;15.214;2023-02-23T11:14:48;9.80;;;2.67;;
34814;SDS011;21030;53.912;15.214;2023-02-23T11:20:24;9.73;;;2.60;;
34814;SDS011;21030;53.912;15.214;2023-02-23T11:29:02;6.63;;;2.75;;
34814;SDS011;21030;53.912;15.214;2023-02-23T11:31:39;3.92;;;2.15;;
34814;SDS011;21030;53.912;15.214;2023-02-23T11:34:26;7.60;;;3.78;;
34814;SDS011;21030;53.912;15.214;2023-02-23T11:37:05;4.15;;;2.67;;
34814;SDS011;21030;53.912;15.214;2023-02-23T11:39:50;4.18;;;2.33;;
34814;SDS011;21030;53.912;15.214;2023-02-23T11:42:26;4.65;;;2.17;;
34814;SDS011;21030;53.912;15.214;2023-02-23T11:47:33;5.50;;;2.25;;
34814;SDS011;21030;53.912;15.214;2023-02-23T11:50:06;2.55;;;1.40;;
34814;SDS011;21030;53.912;15.214;2023-02-23T11:52:45;7.65;;;3.88;;
34814;SDS011;21030;53.912;15.214;2023-02-23T11:55:15;5.88;;;2.35;;
34814;SDS011;21030;53.912;15.214;2023-02-23T11:57:45;2.80;;;1.75;;
34814;SDS011;21030;53.912;15.214;2023-02-23T12:00:24;7.65;;;3.13;;
34814;SDS011;21030;53.912;15.214;2023-02-23T12:02:57;2.97;;;2.67;;
34814;SDS011;21030;53.912;15.214;2023-02-23T12:05:29;3.40;;;1.90;;
34814;SDS011;21030;53.912;15.214;2023-02-23T12:08:01;8.27;;;2.67;;
34814;SDS011;21030;53.912;15.214;2023-02-23T12:10:37;6.35;;;3.22;;
34814;SDS011;21030;53.912;15.214;2023-02-23T12:13:28;4.32;;;2.08;;
34814;SDS011;21030;53.912;15.214;2023-02-23T12:16:03;8.85;;;2.83;;
34814;SDS011;21030;53.912;15.214;2023-02-23T12:18:36;3.33;;;2.23;;
34814;SDS011;21030;53.912;15.214;2023-02-23T12:21:40;4.90;;;2.15;;
34814;SDS011;21030;53.912;15.214;2023-02-23T12:24:40;6.85;;;3.08;;
34814;SDS011;21030;53.912;15.214;2023-02-23T12:27:14;4.35;;;2.90;;
34814;SDS011;21030;53.912;15.214;2023-02-23T12:32:43;13.10;;;4.88;;
34814;SDS011;21030;53.912;15.214;2023-02-23T12:35:37;9.30;;;3.83;;
34814;SDS011;21030;53.912;15.214;2023-02-23T12:41:19;6.07;;;3.92;;
34814;SDS011;21030;53.912;15.214;2023-02-23T12:44:09;9.95;;;3.65;;
34814;SDS011;21030;53.912;15.214;2023-02-23T12:46:45;8.18;;;3.85;;
34814;SDS011;21030;53.912;15.214;2023-02-23T12:49:21;4.10;;;2.63;;
34814;SDS011;21030;53.912;15.214;2023-02-23T12:54:34;5.68;;;3.58;;
34814;SDS011;21030;53.912;15.214;2023-02-23T12:57:08;9.85;;;4.80;;
34814;SDS011;21030;53.912;15.214;2023-02-23T13:02:27;6.80;;;3.38;;
34814;SDS011;21030;53.912;15.214;2023-02-23T13:05:20;7.60;;;4.28;;
34814;SDS011;21030;53.912;15.214;2023-02-23T13:10:48;7.78;;;4.05;;
34814;SDS011;21030;53.912;15.214;2023-02-23T13:24:49;5.60;;;3.65;;
34814;SDS011;21030;53.912;15.214;2023-02-23T13:30:13;6.22;;;3.35;;
34814;SDS011;21030;53.912;15.214;2023-02-23T13:32:41;3.63;;;2.28;;
34814;SDS011;21030;53.912;15.214;2023-02-23T13:35:12;7.38;;;3.28;;
34814;SDS011;21030;53.912;15.214;2023-02-23T13:37:43;5.93;;;3.40;;
34814;SDS011;21030;53.912;15.214;2023-02-23T13:49:15;12.23;;;6.10;;
34814;SDS011;21030;53.912;15.214;2023-02-23T13:52:12;5.57;;;2.50;;
34814;SDS011;21030;53.912;15.214;2023-02-23T13:54:51;7.53;;;4.30;;
34814;SDS011;21030;53.912;15.214;2023-02-23T13:57:22;3.33;;;2.33;;
34814;SDS011;21030;53.912;15.214;2023-02-23T13:59:50;10.35;;;5.97;;
34814;SDS011;21030;53.912;15.214;2023-02-23T14:02:39;11.50;;;5.30;;
34814;SDS011;21030;53.912;15.214;2023-02-23T14:05:20;7.63;;;2.67;;
34814;SDS011;21030;53.912;15.214;2023-02-23T14:07:53;7.93;;;3.50;;
34814;SDS011;21030;53.912;15.214;2023-02-23T14:10:40;7.53;;;5.55;;
34814;SDS011;21030;53.912;15.214;2023-02-23T14:20:53;6.45;;;3.25;;
34814;SDS011;21030;53.912;15.214;2023-02-23T14:29:37;14.23;;;4.68;;
34814;SDS011;21030;53.912;15.214;2023-02-23T14:31:55;7.45;;;3.85;;
34814;SDS011;21030;53.912;15.214;2023-02-23T14:34:54;3.03;;;2.28;;
34814;SDS011;21030;53.912;15.214;2023-02-23T14:42:49;7.75;;;4.32;;
34814;SDS011;21030;53.912;15.214;2023-02-23T14:45:20;9.10;;;3.65;;
34814;SDS011;21030;53.912;15.214;2023-02-23T14:47:55;10.68;;;4.53;;
34814;SDS011;21030;53.912;15.214;2023-02-23T14:50:30;6.35;;;3.05;;
34814;SDS011;21030;53.912;15.214;2023-02-23T14:52:59;10.07;;;5.05;;
34814;SDS011;21030;53.912;15.214;2023-02-23T14:55:30;10.18;;;3.70;;
34814;SDS011;21030;53.912;15.214;2023-02-23T14:58:01;8.30;;;3.80;;
34814;SDS011;21030;53.912;15.214;2023-02-23T15:00:31;12.68;;;4.30;;
34814;SDS011;21030;53.912;15.214;2023-02-23T15:03:03;7.10;;;4.18;;
34814;SDS011;21030;53.912;15.214;2023-02-23T15:05:35;13.68;;;3.72;;
34814;SDS011;21030;53.912;15.214;2023-02-23T15:08:13;11.00;;;4.03;;
34814;SDS011;21030;53.912;15.214;2023-02-23T15:10:44;12.45;;;5.38;;
34814;SDS011;21030;53.912;15.214;2023-02-23T15:13:29;7.80;;;4.03;;
34814;SDS011;21030;53.912;15.214;2023-02-23T15:16:10;7.47;;;3.28;;
34814;SDS011;21030;53.912;15.214;2023-02-23T15:18:44;4.40;;;3.05;;
34814;SDS011;21030;53.912;15.214;2023-02-23T15:21:15;8.52;;;3.88;;
34814;SDS011;21030;53.912;15.214;2023-02-23T15:23:51;10.60;;;4.10;;
34814;SDS011;21030;53.912;15.214;2023-02-23T15:26:28;8.68;;;2.97;;
34814;SDS011;21030;53.912;15.214;2023-02-23T15:31:36;4.97;;;3.28;;
34814;SDS011;21030;53.912;15.214;2023-02-23T15:34:09;7.37;;;4.87;;
34814;SDS011;21030;53.912;15.214;2023-02-23T15:36:37;3.63;;;2.63;;
34814;SDS011;21030;53.912;15.214;2023-02-23T15:39:06;8.90;;;5.30;;
34814;SDS011;21030;53.912;15.214;2023-02-23T15:41:41;6.75;;;4.88;;
34814;SDS011;21030;53.912;15.214;2023-02-23T15:44:15;9.52;;;4.70;;
34814;SDS011;21030;53.912;15.214;2023-02-23T15:46:53;6.78;;;3.08;;
34814;SDS011;21030;53.912;15.214;2023-02-23T15:49:30;8.98;;;3.53;;
34814;SDS011;21030;53.912;15.214;2023-02-23T15:52:05;7.65;;;3.63;;
34814;SDS011;21030;53.912;15.214;2023-02-23T15:55:01;4.68;;;3.97;;
34814;SDS011;21030;53.912;15.214;2023-02-23T15:57:40;6.55;;;4.85;;
34814;SDS011;21030;53.912;15.214;2023-02-23T16:00:18;9.50;;;4.50;;
34814;SDS011;21030;53.912;15.214;2023-02-23T16:03:06;6.18;;;4.15;;
34814;SDS011;21030;53.912;15.214;2023-02-23T16:05:54;6.90;;;3.67;;
34814;SDS011;21030;53.912;15.214;2023-02-23T16:08:30;4.40;;;3.35;;
34814;SDS011;21030;53.912;15.214;2023-02-23T16:11:02;8.07;;;3.15;;
34814;SDS011;21030;53.912;15.214;2023-02-23T16:13:44;5.05;;;4.07;;
34814;SDS011;21030;53.912;15.214;2023-02-23T16:16:13;11.93;;;5.65;;
34814;SDS011;21030;53.912;15.214;2023-02-23T16:18:46;10.68;;;5.18;;
34814;SDS011;21030;53.912;15.214;2023-02-23T16:21:20;3.15;;;2.60;;
34814;SDS011;21030;53.912;15.214;2023-02-23T16:23:51;6.80;;;4.68;;
34814;SDS011;21030;53.912;15.214;2023-02-23T16:29:13;8.82;;;3.70;;
34814;SDS011;21030;53.912;15.214;2023-02-23T16:31:45;6.70;;;4.63;;
34814;SDS011;21030;53.912;15.214;2023-02-23T16:34:27;16.27;;;4.07;;
34814;SDS011;21030;53.912;15.214;2023-02-23T16:37:03;11.27;;;4.53;;
34814;SDS011;21030;53.912;15.214;2023-02-23T16:39:43;8.48;;;4.50;;
34814;SDS011;21030;53.912;15.214;2023-02-23T16:42:16;6.47;;;4.13;;
34814;SDS011;21030;53.912;15.214;2023-02-23T16:44:57;6.28;;;4.53;;
34814;SDS011;21030;53.912;15.214;2023-02-23T16:50:13;10.25;;;3.22;;
34814;SDS011;21030;53.912;15.214;2023-02-23T16:52:46;11.98;;;4.85;;
34814;SDS011;21030;53.912;15.214;2023-02-23T16:55:27;7.18;;;4.55;;
34814;SDS011;21030;53.912;15.214;2023-02-23T16:57:58;3.20;;;1.70;;
34814;SDS011;21030;53.912;15.214;2023-02-23T17:00:28;7.78;;;3.47;;
34814;SDS011;21030;53.912;15.214;2023-02-23T17:02:57;7.90;;;2.85;;
34814;SDS011;21030;53.912;15.214;2023-02-23T17:05:31;6.70;;;3.05;;
34814;SDS011;21030;53.912;15.214;2023-02-23T17:07:58;5.03;;;3.38;;
34814;SDS011;21030;53.912;15.214;2023-02-23T17:10:34;7.40;;;2.95;;
34814;SDS011;21030;53.912;15.214;2023-02-23T17:13:02;9.80;;;5.32;;
34814;SDS011;21030;53.912;15.214;2023-02-23T17:15:33;6.28;;;2.83;;
34814;SDS011;21030;53.912;15.214;2023-02-23T17:18:02;13.40;;;5.00;;
34814;SDS011;21030;53.912;15.214;2023-02-23T17:20:30;11.10;;;5.47;;
34814;SDS011;21030;53.912;15.214;2023-02-23T17:22:58;7.15;;;3.50;;
34814;SDS011;21030;53.912;15.214;2023-02-23T17:25:27;11.70;;;4.97;;
34814;SDS011;21030;53.912;15.214;2023-02-23T17:27:56;21.50;;;5.20;;
34814;SDS011;21030;53.912;15.214;2023-02-23T17:30:24;5.95;;;4.65;;
34814;SDS011;21030;53.912;15.214;2023-02-23T17:32:53;14.50;;;4.47;;
34814;SDS011;21030;53.912;15.214;2023-02-23T17:35:22;10.30;;;3.67;;
34814;SDS011;21030;53.912;15.214;2023-02-23T17:37:51;9.27;;;3.53;;
34814;SDS011;21030;53.912;15.214;2023-02-23T17:40:20;10.20;;;4.65;;
34814;SDS011;21030;53.912;15.214;2023-02-23T17:42:56;9.25;;;4.82;;
34814;SDS011;21030;53.912;15.214;2023-02-23T17:45:25;8.13;;;4.32;;
34814;SDS011;21030;53.912;15.214;2023-02-23T17:47:54;10.32;;;7.50;;
34814;SDS011;21030;53.912;15.214;2023-02-23T17:50:22;10.02;;;5.25;;